createdAt,value
2023-03-22T00:05:07.621Z,3.74
2023-03-22T00:10:29.488Z,3.52
2023-03-22T00:15:51.363Z,3.42
2023-03-22T00:21:15.232Z,3.39
2023-03-22T00:26:37.060Z,3.35
2023-03-22T00:31:58.896Z,3.22
2023-03-22T00:37:21.592Z,3.13
2023-03-22T00:42:43.634Z,2.95
2023-03-22T00:48:05.763Z,2.86
2023-03-22T00:53:27.773Z,2.79
2023-03-22T00:58:49.607Z,2.70
2023-03-22T01:04:11.848Z,2.62
2023-03-22T01:09:34.150Z,2.40
2023-03-22T01:14:56.010Z,2.40
2023-03-22T01:20:18.254Z,2.30
2023-03-22T01:25:40.080Z,2.23
2023-03-22T01:31:03.002Z,2.30
2023-03-22T01:36:24.981Z,2.15
2023-03-22T01:41:46.796Z,2.07
2023-03-22T01:47:09.637Z,1.86
2023-03-22T01:52:31.624Z,1.62
2023-03-22T01:57:54.764Z,1.55
2023-03-22T02:03:24.884Z,1.40
2023-03-22T02:08:46.865Z,1.36
2023-03-22T02:14:13.704Z,1.22
2023-03-22T02:19:57.866Z,1.11
2023-03-22T02:25:28.644Z,1.02
2023-03-22T02:30:53.113Z,0.99
2023-03-22T02:36:18.053Z,0.99
2023-03-22T02:41:46.313Z,0.99
2023-03-22T02:47:14.226Z,1.04
2023-03-22T02:52:53.842Z,0.97
2023-03-22T02:58:24.127Z,0.90
2023-03-22T03:03:49.197Z,0.93
2023-03-22T03:09:11.227Z,0.83
2023-03-22T03:14:33.147Z,0.80
2023-03-22T03:20:21.214Z,0.73
2023-03-22T03:26:27.693Z,0.97
2023-03-22T03:32:04.976Z,0.79
2023-03-22T03:37:35.996Z,0.76
2023-03-22T03:43:01.650Z,0.77
2023-03-22T03:48:28.382Z,0.81
2023-03-22T03:53:50.229Z,0.68
2023-03-22T03:59:12.070Z,0.76
2023-03-22T04:04:34.009Z,0.66
2023-03-22T04:09:55.981Z,0.80
2023-03-22T04:15:18.002Z,0.75
2023-03-22T04:20:40.464Z,0.92
2023-03-22T04:26:02.506Z,0.98
2023-03-22T04:31:25.538Z,1.03
2023-03-22T04:36:47.397Z,0.97
2023-03-22T04:42:09.649Z,1.10
2023-03-22T04:47:31.505Z,1.08
2023-03-22T04:52:53.450Z,1.13
2023-03-22T04:58:15.294Z,1.29
2023-03-22T05:03:37.308Z,1.43
2023-03-22T05:09:00.183Z,1.48
2023-03-22T05:14:22.075Z,1.74
2023-03-22T05:19:43.973Z,1.78
2023-03-22T05:25:06.874Z,1.92
2023-03-22T05:30:30.073Z,2.00
2023-03-22T05:35:51.952Z,1.91
2023-03-22T05:41:14.543Z,2.14
2023-03-22T05:46:36.440Z,2.44
2023-03-22T05:51:58.281Z,2.82
2023-03-22T05:57:20.097Z,3.01
2023-03-22T06:02:47.585Z,3.19
2023-03-22T06:08:09.424Z,3.81
2023-03-22T06:13:31.482Z,4.00
2023-03-22T06:18:53.720Z,5.32
2023-03-22T06:24:15.785Z,6.95
2023-03-22T06:29:37.624Z,10.99
2023-03-22T06:34:59.478Z,12.66
2023-03-22T06:40:21.364Z,13.29
2023-03-22T06:45:43.227Z,15.90
2023-03-22T06:51:05.613Z,18.17
2023-03-22T06:56:27.556Z,19.57
2023-03-22T07:01:49.464Z,18.83
2023-03-22T07:07:11.387Z,17.37
2023-03-22T07:12:33.673Z,18.17
2023-03-22T07:17:55.711Z,19.12
2023-03-22T07:23:18.553Z,18.89
2023-03-22T07:28:40.595Z,14.87
2023-03-22T07:34:05.782Z,16.61
2023-03-22T07:39:27.752Z,16.66
2023-03-22T07:44:49.919Z,18.31
2023-03-22T07:50:12.941Z,18.96
2023-03-22T07:55:35.168Z,21.71
2023-03-22T08:00:57.159Z,19.98
2023-03-22T08:06:19.792Z,19.86
2023-03-22T08:11:41.649Z,16.50
2023-03-22T08:17:06.499Z,16.08
2023-03-22T08:22:28.402Z,15.84
2023-03-22T08:27:50.445Z,20.87
2023-03-22T08:33:12.709Z,21.55
2023-03-22T08:38:34.586Z,19.44
2023-03-22T08:43:56.534Z,17.55
2023-03-22T08:49:18.448Z,14.79
2023-03-22T08:54:40.298Z,14.17
2023-03-22T09:00:04.993Z,13.90
2023-03-22T09:05:26.946Z,13.31
2023-03-22T09:10:49.820Z,13.49
2023-03-22T09:16:12.151Z,13.12
2023-03-22T09:21:34.136Z,13.14
2023-03-22T09:26:55.999Z,12.74
2023-03-22T09:32:18.232Z,12.56
2023-03-22T09:37:40.075Z,12.84
2023-03-22T09:43:05.788Z,13.23
2023-03-22T09:48:32.075Z,13.02
2023-03-22T09:53:53.950Z,13.16
2023-03-22T09:59:21.336Z,13.02
2023-03-22T10:05:23.028Z,13.25
2023-03-22T10:10:45.365Z,13.42
2023-03-22T10:16:12.012Z,13.63
2023-03-22T10:21:35.785Z,13.27
2023-03-22T10:26:57.774Z,13.16
2023-03-22T10:32:45.214Z,13.09
2023-03-22T10:38:20.773Z,13.00
2023-03-22T10:43:43.679Z,12.80
2023-03-22T10:49:07.694Z,13.12
2023-03-22T10:54:30.235Z,13.04
2023-03-22T10:59:55.935Z,13.14
2023-03-22T11:05:25.643Z,13.34
2023-03-22T11:10:50.358Z,13.66
2023-03-22T11:16:17.577Z,13.92
2023-03-22T11:21:41.906Z,13.41
2023-03-22T11:27:22.936Z,13.22
2023-03-22T11:32:44.851Z,13.12
2023-03-22T11:38:06.690Z,13.38
2023-03-22T11:43:46.196Z,13.18
2023-03-22T11:49:12.859Z,13.50
2023-03-22T11:54:36.302Z,13.53
2023-03-22T12:00:08.033Z,13.82
2023-03-22T12:05:33.327Z,14.04
2023-03-22T12:11:25.411Z,14.26
2023-03-22T12:16:59.977Z,14.81
2023-03-22T12:22:30.721Z,14.89
2023-03-22T12:28:16.792Z,14.83
2023-03-22T12:33:49.733Z,14.66
2023-03-22T12:39:33.964Z,14.62
2023-03-22T12:45:12.762Z,15.22
2023-03-22T12:50:37.357Z,15.26
2023-03-22T12:56:01.551Z,14.84
2023-03-22T13:01:31.654Z,14.95
2023-03-22T13:06:53.900Z,14.58
2023-03-22T13:12:15.695Z,14.48
2023-03-22T13:17:44.407Z,14.45
2023-03-22T13:23:24.604Z,14.74
2023-03-22T13:29:01.834Z,14.85
2023-03-22T13:34:45.220Z,15.07
2023-03-22T13:40:14.942Z,15.21
2023-03-22T13:45:36.895Z,15.03
2023-03-22T13:51:10.628Z,14.76
2023-03-22T13:56:48.154Z,14.51
2023-03-22T14:02:10.455Z,14.54
2023-03-22T14:07:42.130Z,14.55
2023-03-22T14:13:16.788Z,14.26
2023-03-22T14:18:45.349Z,14.11
